createdAt,value
2022-08-21T00:03:14.733Z,100332.84
2022-08-21T00:08:19.049Z,100330.47
2022-08-21T00:13:21.960Z,100331.81
2022-08-21T00:18:24.919Z,100333.25
2022-08-21T00:23:29.038Z,100324.69
2022-08-21T00:28:31.895Z,100320.03
2022-08-21T00:33:34.827Z,100336.81
2022-08-21T00:38:39.125Z,100333.28
2022-08-21T00:43:42.127Z,100328.91
2022-08-21T00:48:44.972Z,100336.59
2022-08-21T00:53:53.711Z,100333.03
2022-08-21T00:58:56.912Z,100325.81
2022-08-21T01:03:59.774Z,100329.78
2022-08-21T01:09:03.997Z,100331.75
2022-08-21T01:14:06.897Z,100332.19
2022-08-21T01:19:09.738Z,100339.81
2022-08-21T01:24:16.279Z,100334.72
2022-08-21T01:29:25.405Z,100332.56
2022-08-21T01:34:28.089Z,100337.22
2022-08-21T01:39:32.216Z,100336.81
2022-08-21T01:44:35.001Z,100332.25
2022-08-21T01:49:38.360Z,100333.97
2022-08-21T01:54:42.469Z,100335.88
2022-08-21T01:59:45.312Z,100329.63
2022-08-21T02:04:48.127Z,100333.00
2022-08-21T02:09:52.328Z,100333.56
2022-08-21T02:14:56.362Z,100327.63
2022-08-21T02:19:59.069Z,100329.78
2022-08-21T02:25:03.229Z,100320.28
2022-08-21T02:30:07.055Z,100320.34
2022-08-21T02:35:11.118Z,100307.16
2022-08-21T02:40:15.569Z,100316.22
2022-08-21T02:45:19.251Z,100316.28
2022-08-21T02:50:24.750Z,100311.28
2022-08-21T02:55:32.114Z,100322.69
2022-08-21T03:00:35.003Z,100314.44
2022-08-21T03:05:38.919Z,100302.88
2022-08-21T03:10:45.224Z,100303.34
2022-08-21T03:15:48.417Z,100305.06
2022-08-21T03:20:52.535Z,100305.47
2022-08-21T03:25:57.040Z,100320.56
2022-08-21T03:30:59.875Z,100307.19
2022-08-21T03:36:05.427Z,100313.75
2022-08-21T03:41:09.762Z,100325.03
2022-08-21T03:46:12.538Z,100324.88
2022-08-21T03:51:15.830Z,100332.69
2022-08-21T03:56:19.901Z,100331.97
2022-08-21T04:01:22.742Z,100336.94
2022-08-21T04:06:25.834Z,100336.31
2022-08-21T04:11:30.124Z,100338.84
2022-08-21T04:16:33.230Z,100344.22
2022-08-21T04:21:36.058Z,100352.31
2022-08-21T04:26:40.828Z,100356.13
2022-08-21T04:31:44.622Z,100365.34
2022-08-21T04:36:47.453Z,100358.63
2022-08-21T04:41:51.513Z,100374.34
2022-08-21T04:46:54.307Z,100366.34
2022-08-21T04:51:57.127Z,100370.88
2022-08-21T04:57:04.347Z,100364.56
2022-08-21T05:02:07.861Z,100370.63
2022-08-21T05:07:14.560Z,100370.09
2022-08-21T05:12:18.851Z,100372.41
2022-08-21T05:17:22.272Z,100382.63
2022-08-21T05:22:25.875Z,100391.13
2022-08-21T05:27:30.696Z,100381.53
2022-08-21T05:32:34.710Z,100392.50
2022-08-21T05:37:37.950Z,100394.94
2022-08-21T05:42:42.261Z,100401.56
2022-08-21T05:47:45.234Z,100400.59
2022-08-21T05:52:48.104Z,100398.53
2022-08-21T05:57:52.228Z,100405.72
2022-08-21T06:02:55.142Z,100416.09
2022-08-21T06:07:57.934Z,100408.41
2022-08-21T06:13:02.030Z,100397.06
2022-08-21T06:18:04.896Z,100403.56
2022-08-21T06:23:07.897Z,100395.66
2022-08-21T06:28:12.157Z,100401.38
2022-08-21T06:33:15.221Z,100405.81
2022-08-21T06:38:21.110Z,100401.31
2022-08-21T06:43:37.844Z,100399.72
2022-08-21T06:48:42.774Z,100404.06
2022-08-21T06:53:45.536Z,100404.91
2022-08-21T06:58:49.874Z,100416.44
2022-08-21T07:03:52.927Z,100413.88
2022-08-21T07:08:57.938Z,100419.06
2022-08-21T07:14:03.304Z,100424.78
2022-08-21T07:19:06.271Z,100427.31
2022-08-21T07:24:09.063Z,100425.34
2022-08-21T07:29:13.358Z,100421.44
2022-08-21T07:34:16.183Z,100412.50
2022-08-21T07:39:18.974Z,100418.97
2022-08-21T07:44:23.079Z,100410.75
2022-08-21T07:49:25.948Z,100407.56
2022-08-21T07:54:34.410Z,100409.63
2022-08-21T07:59:38.753Z,100405.72
2022-08-21T08:04:51.008Z,100410.38
2022-08-21T08:09:54.125Z,100412.53
2022-08-21T08:14:58.354Z,100407.75
2022-08-21T08:20:01.690Z,100418.31
2022-08-21T08:25:09.146Z,100415.75
2022-08-21T08:30:14.702Z,100406.72
2022-08-21T08:35:17.599Z,100406.84
2022-08-21T08:40:22.826Z,100402.09
2022-08-21T08:45:27.314Z,100403.81
2022-08-21T08:50:33.867Z,100406.66
2022-08-21T08:55:37.877Z,100412.09
2022-08-21T09:00:41.977Z,100410.59
2022-08-21T09:05:46.957Z,100410.00
2022-08-21T09:10:53.543Z,100413.28
2022-08-21T09:16:02.059Z,100418.88
2022-08-21T09:21:11.334Z,100406.28
2022-08-21T09:26:15.145Z,100407.53
2022-08-21T09:31:24.037Z,100410.00
2022-08-21T09:36:27.977Z,100405.78
2022-08-21T09:41:32.019Z,100405.31
2022-08-21T09:46:36.599Z,100390.72
2022-08-21T09:51:39.433Z,100395.09
2022-08-21T09:57:10.691Z,100400.75
2022-08-21T10:02:27.509Z,100401.94
2022-08-21T10:07:31.547Z,100392.16
2022-08-21T10:12:43.152Z,100386.56
2022-08-21T10:17:51.938Z,100392.66
2022-08-21T10:23:03.365Z,100391.19
2022-08-21T10:28:11.449Z,100384.94
2022-08-21T10:33:28.663Z,100385.28
2022-08-21T10:39:23.441Z,100384.16
2022-08-21T10:44:25.990Z,100377.34
2022-08-21T10:49:36.454Z,100373.38
2022-08-21T10:54:41.283Z,100373.25
2022-08-21T10:59:46.467Z,100373.13
2022-08-21T11:04:55.333Z,100370.69
2022-08-21T11:09:59.470Z,100364.25
2022-08-21T11:15:04.644Z,100361.13
2022-08-21T11:20:12.266Z,100360.56
2022-08-21T11:25:18.819Z,100366.69
2022-08-21T11:30:21.749Z,100357.25
2022-08-21T11:35:30.890Z,100352.47
2022-08-21T11:40:40.718Z,100345.25
2022-08-21T11:45:46.702Z,100349.16
2022-08-21T11:50:50.877Z,100349.19
2022-08-21T11:55:58.035Z,100342.38
2022-08-21T12:01:02.923Z,100333.38
2022-08-21T12:06:08.748Z,100334.19
2022-08-21T12:11:12.811Z,100333.44
2022-08-21T12:16:16.919Z,100330.84
2022-08-21T12:21:23.824Z,100323.09
2022-08-21T12:26:29.051Z,100315.69
2022-08-21T12:31:31.918Z,100323.91
2022-08-21T12:36:44.500Z,100324.47
2022-08-21T12:41:49.801Z,100323.81
2022-08-21T12:46:53.974Z,100322.09
2022-08-21T12:51:58.960Z,100322.25
2022-08-21T12:57:03.428Z,100322.72
2022-08-21T13:02:08.145Z,100320.25
2022-08-21T13:07:15.054Z,100309.91
2022-08-21T13:12:18.206Z,100317.66
2022-08-21T13:17:25.750Z,100299.34
2022-08-21T13:22:33.777Z,100292.69
2022-08-21T13:27:38.268Z,100301.34
2022-08-21T13:32:43.223Z,100290.91
2022-08-21T13:37:48.530Z,100296.25
2022-08-21T13:42:51.502Z,100290.34
2022-08-21T13:47:54.514Z,100286.56
2022-08-21T13:53:01.661Z,100283.59
2022-08-21T13:58:05.557Z,100285.28
2022-08-21T14:03:09.845Z,100283.59
2022-08-21T14:08:15.460Z,100284.44
2022-08-21T14:13:38.190Z,100289.34
2022-08-21T14:18:46.424Z,100287.41
2022-08-21T14:23:52.559Z,100285.13
2022-08-21T14:28:55.346Z,100270.75
2022-08-21T14:33:59.525Z,100275.06
2022-08-21T14:39:03.745Z,100273.88
2022-08-21T14:44:09.872Z,100261.38
2022-08-21T14:49:13.021Z,100269.72
2022-08-21T14:54:18.875Z,100278.06
2022-08-21T14:59:26.808Z,100268.22
2022-08-21T15:04:29.610Z,100263.22
2022-08-21T15:09:33.741Z,100257.53
2022-08-21T15:14:37.580Z,100252.88
2022-08-21T15:19:40.675Z,100257.22
2022-08-21T15:24:45.050Z,100239.94
2022-08-21T15:29:47.800Z,100245.50
2022-08-21T15:34:53.760Z,100247.34
2022-08-21T15:39:59.880Z,100239.34
2022-08-21T15:45:03.958Z,100241.25
2022-08-21T15:50:13.629Z,100250.22
2022-08-21T15:55:19.007Z,100242.94
2022-08-21T16:00:24.273Z,100243.38
2022-08-21T16:05:27.786Z,100243.84
2022-08-21T16:10:32.269Z,100240.19
2022-08-21T16:15:35.398Z,100231.31
2022-08-21T16:20:38.718Z,100225.22
2022-08-21T16:25:43.758Z,100236.09
2022-08-21T16:30:47.013Z,100226.75
2022-08-21T16:35:50.065Z,100236.69
2022-08-21T16:40:54.430Z,100226.47
2022-08-21T16:45:58.074Z,100218.75
2022-08-21T16:51:00.901Z,100223.00
2022-08-21T16:56:05.254Z,100220.22
2022-08-21T17:01:09.004Z,100221.59
2022-08-21T17:06:11.767Z,100217.84
2022-08-21T17:11:32.529Z,100218.09
2022-08-21T17:16:40.727Z,100224.00
2022-08-21T17:21:43.497Z,100221.34
2022-08-21T17:26:47.919Z,100223.63
2022-08-21T17:31:50.817Z,100229.78
2022-08-21T17:36:53.664Z,100219.59
2022-08-21T17:41:58.340Z,100226.84
2022-08-21T17:47:01.321Z,100223.47
2022-08-21T17:52:04.623Z,100229.91
2022-08-21T17:57:10.001Z,100241.16
2022-08-21T18:02:19.599Z,100244.56
2022-08-21T18:07:32.334Z,100243.44
2022-08-21T18:12:37.169Z,100250.84
2022-08-21T18:17:41.174Z,100254.25
2022-08-21T18:22:43.892Z,100256.97
2022-08-21T18:27:48.085Z,100260.03
2022-08-21T18:32:50.955Z,100258.16
2022-08-21T18:37:53.817Z,100266.28
2022-08-21T18:42:59.558Z,100265.16
2022-08-21T18:48:03.588Z,100267.16
2022-08-21T18:53:20.664Z,100271.25
2022-08-21T18:58:30.666Z,100278.03
2022-08-21T19:03:33.436Z,100274.69
2022-08-21T19:08:36.662Z,100278.19
2022-08-21T19:13:42.095Z,100269.13
2022-08-21T19:18:44.998Z,100278.75
2022-08-21T19:23:52.540Z,100276.03
2022-08-21T19:28:59.587Z,100276.66
2022-08-21T19:34:03.236Z,100287.16
2022-08-21T19:39:08.191Z,100288.50
2022-08-21T19:44:15.218Z,100285.47
2022-08-21T19:49:20.195Z,100282.53
2022-08-21T19:54:25.737Z,100285.81
2022-08-21T19:59:31.137Z,100286.25
2022-08-21T20:04:34.097Z,100289.69
2022-08-21T20:09:37.327Z,100292.00
2022-08-21T20:14:45.484Z,100290.81
2022-08-21T20:19:53.938Z,100291.81
2022-08-21T20:24:57.825Z,100299.88
2022-08-21T20:30:01.972Z,100288.44
2022-08-21T20:35:05.211Z,100290.88
2022-08-21T20:40:15.793Z,100297.63
2022-08-21T20:45:26.467Z,100293.84
2022-08-21T20:50:29.309Z,100300.09
2022-08-21T20:55:32.291Z,100292.53
2022-08-21T21:00:39.840Z,100294.78
2022-08-21T21:05:47.125Z,100298.66
2022-08-21T21:10:57.927Z,100292.06
2022-08-21T21:16:05.547Z,100287.91
2022-08-21T21:21:09.705Z,100293.00
2022-08-21T21:26:16.530Z,100295.16
2022-08-21T21:31:20.873Z,100299.03
2022-08-21T21:36:28.360Z,100306.28
2022-08-21T21:41:35.455Z,100297.72
2022-08-21T21:46:46.132Z,100310.25
2022-08-21T21:52:00.173Z,100301.13
2022-08-21T21:57:06.108Z,100299.19
2022-08-21T22:02:16.848Z,100302.97
2022-08-21T22:07:25.198Z,100309.16
2022-08-21T22:12:34.313Z,100309.06
2022-08-21T22:17:57.287Z,100321.91
2022-08-21T22:23:00.600Z,100309.84
2022-08-21T22:28:06.081Z,100321.81
2022-08-21T22:33:15.682Z,100309.44
2022-08-21T22:38:31.656Z,100312.31
2022-08-21T22:43:34.473Z,100312.72
2022-08-21T22:48:46.631Z,100312.88
2022-08-21T22:53:52.915Z,100310.00
2022-08-21T22:58:57.404Z,100315.72
2022-08-21T23:04:15.031Z,100312.47
2022-08-21T23:09:21.429Z,100320.44
2022-08-21T23:14:24.544Z,100317.91
2022-08-21T23:19:38.160Z,100313.19
2022-08-21T23:24:55.076Z,100317.22
2022-08-21T23:30:03.397Z,100315.19
2022-08-21T23:35:11.654Z,100315.47
2022-08-21T23:40:23.147Z,100326.75
2022-08-21T23:45:39.915Z,100325.91
2022-08-21T23:50:57.235Z,100318.81
2022-08-21T23:56:08.137Z,100319.97
